Latitude: N 50° 09' 49" Longitude: W 05° 11' 53" Elevation: 168m ASL

There are 28 visitors online

Adverts
Latest METAR Data

Below are the latest METARs ("Meteorological Services to Airmen Reports"), for RNAS Culdrose and Newquay Airport.

EGDR - RNAS Culdrose
Distance from station: SW 6mi, 9km
Updated: Sun, 24-Sep-2017 8:50am BST

 Wind from SSW
Wind: SSW 3 mph , 6 km/h
Temperature: 59°F , 15°C
Dew Point: 59°F , 15°C
Humidity: 100%
Barometer: 29.97 inHg , 1015 hPa
Visibility: 0 mile , 1 km
2017/09/24 07:50 EGDR 240750Z AUTO 21003KT 0500 // VV/// 15/15 Q1015
EGHQ - Newquay Airport
Distance from station: NE 21mi, 34km
Updated: Sun, 24-Sep-2017 9:20am BST
Light drizzle, Mist, Mostly cloudy
Light drizzle, Mist, Mostly cloudy
 Wind from S
Wind: S 5 mph , 7 km/h
Temperature: 57°F , 14°C
Dew Point: 57°F , 14°C
Humidity: 100%
Barometer: 30 inHg , 1016 hPa
Summary: Light drizzle, Mist
Clouds: Mostly Cloudy
Visibility: 1 mile , 2 km
Cloud details: Mostly Cloudy 200 ft
2017/09/24 08:20 EGHQ 240820Z 18004KT 1800 -DZ BR BKN002 14/14 Q1016
 
EGTE - Exeter Airport
Distance from station: ENE 88mi, 141km
Updated: Sun, 24-Sep-2017 9:20am BST
Few Clouds
Few Clouds
 Wind from calm
Wind: Calm
Temperature: 59°F , 15°C
Dew Point: 59°F , 15°C
Humidity: 100%
Barometer: 30 inHg , 1016 hPa
Clouds: Few Clouds
Visibility: 6 miles , 9 km
Cloud details: Few Clouds 700 ft
2017/09/24 08:20 EGTE 240820Z 00000KT 9000 FEW007 15/15 Q1016
EGHE - St Marys, IOS
Distance from station: W 51mi, 82km
Updated: Sat, 23-Sep-2017 5:50pm BST
NOT Current
Few Clouds
Few Clouds
 Wind from SSE
Wind: SSE 24 mph , 39 km/h
Temperature: 59°F , 15°C
Dew Point: 57°F , 14°C
Humidity: 94%
Barometer: 29.94 inHg , 1014 hPa
Clouds: Few Clouds
Visibility: 6 miles , 10 km
Cloud details: Few Clouds 1000 ft
2017/09/23 16:50 EGHE 231650Z 16021KT 9999 FEW010 15/14 Q1014

Metar display script from Saratoga-Weather.org

UK - WEATHER STATION TOPSITES - UK World Weather Websites

This is a private weather station, never base important decisions or events on data from this weather station. Although every effort has been made to make the data as accurate as possible it does not meet MetOffice standards. It is proved as a guide of local weather conditions. We accept no liability for any loss which may arise from use of the data.

Copyright © Carnkie Weather 2009 - 2017.